sensor_id;sensor_type;location;lat;lon;timestamp;pressure;altitude;pressure_sealevel;temperature;humidity
48624;BME280;34422;45.802;16.114;2023-10-08T00:02:46;65490.38;;;16.02;100.00
48624;BME280;34422;45.802;16.114;2023-10-08T00:05:18;65493.63;;;15.94;100.00
48624;BME280;34422;45.802;16.114;2023-10-08T00:07:51;65482.28;;;15.91;100.00
48624;BME280;34422;45.802;16.114;2023-10-08T00:10:29;65463.88;;;15.79;100.00
48624;BME280;34422;45.802;16.114;2023-10-08T00:16:19;65476.34;;;15.83;100.00
48624;BME280;34422;45.802;16.114;2023-10-08T00:18:50;65470.38;;;15.80;100.00
48624;BME280;34422;45.802;16.114;2023-10-08T00:21:26;65467.13;;;15.77;100.00
48624;BME280;34422;45.802;16.114;2023-10-08T00:24:17;65453.06;;;15.64;100.00
48624;BME280;34422;45.802;16.114;2023-10-08T00:27:11;65434.13;;;15.49;100.00
48624;BME280;34422;45.802;16.114;2023-10-08T00:29:54;65443.31;;;15.50;100.00
48624;BME280;34422;45.802;16.114;2023-10-08T00:32:37;65437.91;;;15.50;100.00
48624;BME280;34422;45.802;16.114;2023-10-08T00:35:41;65428.72;;;15.41;100.00
48624;BME280;34422;45.802;16.114;2023-10-08T00:38:27;65417.91;;;15.34;100.00
48624;BME280;34422;45.802;16.114;2023-10-08T00:41:07;65393.06;;;15.10;100.00
48624;BME280;34422;45.802;16.114;2023-10-08T00:43:48;65403.31;;;15.17;100.00
48624;BME280;34422;45.802;16.114;2023-10-08T00:46:18;65413.59;;;15.27;100.00
48624;BME280;34422;45.802;16.114;2023-10-08T00:49:02;65400.63;;;15.15;100.00
48624;BME280;34422;45.802;16.114;2023-10-08T00:51:56;65414.69;;;15.25;100.00
48624;BME280;34422;45.802;16.114;2023-10-08T00:54:49;65394.66;;;15.04;100.00
48624;BME280;34422;45.802;16.114;2023-10-08T00:58:02;65405.47;;;15.19;100.00
48624;BME280;34422;45.802;16.114;2023-10-08T01:01:05;65389.81;;;15.02;100.00
48624;BME280;34422;45.802;16.114;2023-10-08T01:03:43;65413.06;;;15.21;100.00
48624;BME280;34422;45.802;16.114;2023-10-08T01:06:31;65411.44;;;15.25;100.00
48624;BME280;34422;45.802;16.114;2023-10-08T01:09:28;65389.28;;;15.04;100.00
48624;BME280;34422;45.802;16.114;2023-10-08T01:15:03;65402.25;;;15.16;100.00
48624;BME280;34422;45.802;16.114;2023-10-08T01:17:55;65410.91;;;15.27;100.00
48624;BME280;34422;45.802;16.114;2023-10-08T01:20:30;65408.75;;;15.27;100.00
48624;BME280;34422;45.802;16.114;2023-10-08T01:23:20;65406.56;;;15.20;100.00
48624;BME280;34422;45.802;16.114;2023-10-08T01:25:49;65407.66;;;15.21;100.00
48624;BME280;34422;45.802;16.114;2023-10-08T01:28:31;65381.72;;;14.97;100.00
48624;BME280;34422;45.802;16.114;2023-10-08T01:31:00;65404.41;;;15.18;100.00
48624;BME280;34422;45.802;16.114;2023-10-08T01:33:30;65383.88;;;14.99;100.00
48624;BME280;34422;45.802;16.114;2023-10-08T01:36:00;65388.19;;;14.98;100.00
48624;BME280;34422;45.802;16.114;2023-10-08T01:38:32;65394.13;;;15.09;100.00
48624;BME280;34422;45.802;16.114;2023-10-08T01:41:04;65395.75;;;15.10;100.00
48624;BME280;34422;45.802;16.114;2023-10-08T01:43:47;65381.72;;;14.97;100.00
48624;BME280;34422;45.802;16.114;2023-10-08T01:46:20;65389.28;;;15.02;100.00
48624;BME280;34422;45.802;16.114;2023-10-08T01:48:48;65375.22;;;14.91;100.00
48624;BME280;34422;45.802;16.114;2023-10-08T01:51:19;65363.34;;;14.80;100.00
48624;BME280;34422;45.802;16.114;2023-10-08T01:54:03;65378.47;;;14.91;100.00
48624;BME280;34422;45.802;16.114;2023-10-08T01:56:43;65374.13;;;14.90;100.00
48624;BME280;34422;45.802;16.114;2023-10-08T01:59:14;65373.59;;;14.92;100.00
48624;BME280;34422;45.802;16.114;2023-10-08T02:01:53;65374.69;;;14.93;100.00
48624;BME280;34422;45.802;16.114;2023-10-08T02:04:37;65373.06;;;14.89;100.00
48624;BME280;34422;45.802;16.114;2023-10-08T02:07:14;65359.03;;;14.76;100.00
48624;BME280;34422;45.802;16.114;2023-10-08T02:09:48;65379.00;;;14.94;100.00
48624;BME280;34422;45.802;16.114;2023-10-08T02:12:21;65384.97;;;15.00;100.00
48624;BME280;34422;45.802;16.114;2023-10-08T02:14:54;65371.44;;;14.82;100.00
48624;BME280;34422;45.802;16.114;2023-10-08T02:17:38;65383.88;;;14.99;100.00
48624;BME280;34422;45.802;16.114;2023-10-08T02:20:13;65394.13;;;15.09;100.00
48624;BME280;34422;45.802;16.114;2023-10-08T02:23:02;65400.09;;;15.14;100.00
48624;BME280;34422;45.802;16.114;2023-10-08T02:25:40;65374.69;;;14.90;100.00
48624;BME280;34422;45.802;16.114;2023-10-08T02:28:10;65381.19;;;14.99;100.00
48624;BME280;34422;45.802;16.114;2023-10-08T02:30:50;65411.44;;;15.17;100.00
48624;BME280;34422;45.802;16.114;2023-10-08T02:33:23;65399.53;;;15.11;100.00
48624;BME280;34422;45.802;16.114;2023-10-08T02:36:10;65396.84;;;15.06;100.00
48624;BME280;34422;45.802;16.114;2023-10-08T02:39:06;65395.75;;;15.13;100.00
48624;BME280;34422;45.802;16.114;2023-10-08T02:42:06;65370.91;;;14.87;100.00
48624;BME280;34422;45.802;16.114;2023-10-08T02:44:47;65372.00;;;14.85;100.00
48624;BME280;34422;45.802;16.114;2023-10-08T02:47:33;65364.97;;;14.79;100.00
48624;BME280;34422;45.802;16.114;2023-10-08T02:50:36;65376.84;;;14.92;100.00
48624;BME280;34422;45.802;16.114;2023-10-08T02:53:08;65369.28;;;14.83;100.00
48624;BME280;34422;45.802;16.114;2023-10-08T02:55:47;65376.31;;;14.92;100.00
48624;BME280;34422;45.802;16.114;2023-10-08T02:58:33;65364.41;;;14.81;100.00
48624;BME280;34422;45.802;16.114;2023-10-08T03:01:41;65360.09;;;14.77;100.00
48624;BME280;34422;45.802;16.114;2023-10-08T03:04:22;65334.72;;;14.55;100.00
48624;BME280;34422;45.802;16.114;2023-10-08T03:07:01;65357.94;;;14.72;100.00
48624;BME280;34422;45.802;16.114;2023-10-08T03:13:13;65322.28;;;14.41;100.00
48624;BME280;34422;45.802;16.114;2023-10-08T03:15:49;65346.06;;;14.61;100.00
48624;BME280;34422;45.802;16.114;2023-10-08T03:18:24;65347.69;;;14.68;100.00
48624;BME280;34422;45.802;16.114;2023-10-08T03:20:54;65347.66;;;14.65;100.00
48624;BME280;34422;45.802;16.114;2023-10-08T03:23:25;65346.06;;;14.64;100.00
48624;BME280;34422;45.802;16.114;2023-10-08T03:26:14;65363.88;;;14.80;100.00
48624;BME280;34422;45.802;16.114;2023-10-08T03:29:09;65343.38;;;14.58;100.00
48624;BME280;34422;45.802;16.114;2023-10-08T03:31:52;65351.47;;;14.69;100.00
48624;BME280;34422;45.802;16.114;2023-10-08T03:34:34;65357.41;;;14.69;100.00
48624;BME280;34422;45.802;16.114;2023-10-08T03:37:29;65373.63;;;14.89;100.00
48624;BME280;34422;45.802;16.114;2023-10-08T03:40:09;65378.47;;;14.89;100.00
48624;BME280;34422;45.802;16.114;2023-10-08T03:43:14;65373.06;;;14.89;100.00
48624;BME280;34422;45.802;16.114;2023-10-08T03:46:12;65345.50;;;14.63;100.00
48624;BME280;34422;45.802;16.114;2023-10-08T03:48:59;65370.91;;;14.82;100.00
48624;BME280;34422;45.802;16.114;2023-10-08T03:51:46;65368.19;;;14.79;100.00
48624;BME280;34422;45.802;16.114;2023-10-08T03:54:21;65337.97;;;14.61;100.00
48624;BME280;34422;45.802;16.114;2023-10-08T03:57:29;65342.81;;;14.66;100.00
48624;BME280;34422;45.802;16.114;2023-10-08T04:00:23;65356.31;;;14.73;100.00
48624;BME280;34422;45.802;16.114;2023-10-08T04:03:18;65347.69;;;14.68;100.00
48624;BME280;34422;45.802;16.114;2023-10-08T04:06:11;65330.94;;;14.47;100.00
48624;BME280;34422;45.802;16.114;2023-10-08T04:08:57;65330.38;;;14.49;100.00
48624;BME280;34422;45.802;16.114;2023-10-08T04:11:56;65331.47;;;14.47;100.00
48624;BME280;34422;45.802;16.114;2023-10-08T04:14:49;65351.44;;;14.64;100.00
48624;BME280;34422;45.802;16.114;2023-10-08T04:17:33;65341.75;;;14.60;100.00
48624;BME280;34422;45.802;16.114;2023-10-08T04:20:15;65320.09;;;14.39;100.00
48624;BME280;34422;45.802;16.114;2023-10-08T04:23:13;65322.84;;;14.42;100.00
48624;BME280;34422;45.802;16.114;2023-10-08T04:26:14;65345.53;;;14.58;100.00
48624;BME280;34422;45.802;16.114;2023-10-08T04:29:13;65314.72;;;14.34;100.00
48624;BME280;34422;45.802;16.114;2023-10-08T04:32:08;65330.94;;;14.49;100.00
48624;BME280;34422;45.802;16.114;2023-10-08T04:34:50;65326.06;;;14.40;100.00
48624;BME280;34422;45.802;16.114;2023-10-08T04:37:53;65293.09;;;14.14;100.00
48624;BME280;34422;45.802;16.114;2023-10-08T04:40:39;65299.59;;;14.20;100.00
48624;BME280;34422;45.802;16.114;2023-10-08T04:43:20;65293.09;;;14.11;100.00
48624;BME280;34422;45.802;16.114;2023-10-08T04:45:52;65278.53;;;14.00;100.00
48624;BME280;34422;45.802;16.114;2023-10-08T04:48:20;65306.06;;;14.21;100.00
48624;BME280;34422;45.802;16.114;2023-10-08T04:50:49;65284.47;;;14.11;100.00
48624;BME280;34422;45.802;16.114;2023-10-08T04:53:35;65299.59;;;14.15;100.00
48624;BME280;34422;45.802;16.114;2023-10-08T04:56:09;65309.84;;;14.27;100.00
48624;BME280;34422;45.802;16.114;2023-10-08T04:58:53;65327.13;;;14.36;100.00
48624;BME280;34422;45.802;16.114;2023-10-08T05:01:21;65309.84;;;14.32;100.00
48624;BME280;34422;45.802;16.114;2023-10-08T05:03:55;65320.69;;;14.42;100.00
48624;BME280;34422;45.802;16.114;2023-10-08T05:06:37;65301.22;;;14.16;100.00
48624;BME280;34422;45.802;16.114;2023-10-08T05:09:10;65316.88;;;14.36;100.00
48624;BME280;34422;45.802;16.114;2023-10-08T05:11:52;65324.47;;;14.43;100.00
48624;BME280;34422;45.802;16.114;2023-10-08T05:14:53;65327.16;;;14.46;100.00
48624;BME280;34422;45.802;16.114;2023-10-08T05:18:09;65315.78;;;14.35;100.00
48624;BME280;34422;45.802;16.114;2023-10-08T05:20:44;65346.06;;;14.64;100.00
48624;BME280;34422;45.802;16.114;2023-10-08T05:23:54;65333.09;;;14.56;100.00
48624;BME280;34422;45.802;16.114;2023-10-08T05:26:42;65341.19;;;14.59;100.00
48624;BME280;34422;45.802;16.114;2023-10-08T05:29:24;65374.16;;;14.85;100.00
48624;BME280;34422;45.802;16.114;2023-10-08T05:32:12;65373.06;;;14.86;100.00
48624;BME280;34422;45.802;16.114;2023-10-08T05:35:36;65373.63;;;14.87;100.00
48624;BME280;34422;45.802;16.114;2023-10-08T05:38:34;65396.31;;;15.08;100.00
48624;BME280;34422;45.802;16.114;2023-10-08T05:41:23;65396.84;;;15.06;100.00
48624;BME280;34422;45.802;16.114;2023-10-08T05:44:48;65411.44;;;15.27;100.00
48624;BME280;34422;45.802;16.114;2023-10-08T05:47:58;65427.13;;;15.40;100.00
48624;BME280;34422;45.802;16.114;2023-10-08T05:51:22;65427.66;;;15.43;100.00
48624;BME280;34422;45.802;16.114;2023-10-08T05:54:26;65448.22;;;15.57;100.00
48624;BME280;34422;45.802;16.114;2023-10-08T05:57:04;65459.56;;;15.75;100.00
48624;BME280;34422;45.802;16.114;2023-10-08T05:59:45;65503.38;;;16.11;100.00
48624;BME280;34422;45.802;16.114;2023-10-08T06:02:44;65495.25;;;16.06;100.00
48624;BME280;34422;45.802;16.114;2023-10-08T06:05:54;65527.16;;;16.33;100.00
48624;BME280;34422;45.802;16.114;2023-10-08T06:09:06;65528.78;;;16.35;100.00
48624;BME280;34422;45.802;16.114;2023-10-08T06:12:07;65546.09;;;16.46;100.00
48624;BME280;34422;45.802;16.114;2023-10-08T06:14:45;65556.91;;;16.61;100.00
48624;BME280;34422;45.802;16.114;2023-10-08T06:17:55;65552.03;;;16.57;100.00
48624;BME280;34422;45.802;16.114;2023-10-08T06:20:35;65573.69;;;16.82;100.00
48624;BME280;34422;45.802;16.114;2023-10-08T06:23:17;65566.13;;;16.70;100.00
48624;BME280;34422;45.802;16.114;2023-10-08T06:26:27;65545.56;;;16.53;100.00
48624;BME280;34422;45.802;16.114;2023-10-08T06:29:15;65553.66;;;16.58;100.00
48624;BME280;34422;45.802;16.114;2023-10-08T06:31:58;65573.16;;;16.79;100.00
48624;BME280;34422;45.802;16.114;2023-10-08T06:34:45;65599.69;;;17.01;100.00
48624;BME280;34422;45.802;16.114;2023-10-08T06:37:46;65592.13;;;16.94;100.00
48624;BME280;34422;45.802;16.114;2023-10-08T06:40:38;65620.81;;;17.19;100.00
48624;BME280;34422;45.802;16.114;2023-10-08T06:43:08;65633.25;;;17.35;100.00
48624;BME280;34422;45.802;16.114;2023-10-08T06:45:51;65638.66;;;17.40;100.00
48624;BME280;34422;45.802;16.114;2023-10-08T06:48:30;65654.91;;;17.53;100.00
48624;BME280;34422;45.802;16.114;2023-10-08T06:51:09;65671.69;;;17.74;100.00
48624;BME280;34422;45.802;16.114;2023-10-08T06:54:14;65666.28;;;17.64;100.00
48624;BME280;34422;45.802;16.114;2023-10-08T06:57:07;65634.88;;;17.34;100.00
48624;BME280;34422;45.802;16.114;2023-10-08T06:59:49;65691.75;;;17.90;100.00
48624;BME280;34422;45.802;16.114;2023-10-08T07:02:37;65702.03;;;17.95;100.00
48624;BME280;34422;45.802;16.114;2023-10-08T07:05:13;65717.75;;;18.15;100.00
48624;BME280;34422;45.802;16.114;2023-10-08T07:07:42;65708.00;;;18.03;100.00
48624;BME280;34422;45.802;16.114;2023-10-08T07:10:14;65739.94;;;18.38;100.00
48624;BME280;34422;45.802;16.114;2023-10-08T07:12:48;65722.59;;;18.22;100.00
48624;BME280;34422;45.802;16.114;2023-10-08T07:15:17;65708.53;;;18.03;100.00
48624;BME280;34422;45.802;16.114;2023-10-08T07:17:50;65735.09;;;18.26;100.00
48624;BME280;34422;45.802;16.114;2023-10-08T07:20:18;65737.81;;;18.28;100.00
48624;BME280;34422;45.802;16.114;2023-10-08T07:22:48;65797.41;;;18.89;100.00
48624;BME280;34422;45.802;16.114;2023-10-08T07:25:26;65830.50;;;19.15;100.00
48624;BME280;34422;45.802;16.114;2023-10-08T07:28:11;65828.31;;;19.18;100.00
48624;BME280;34422;45.802;16.114;2023-10-08T07:30:39;65852.19;;;19.40;100.00
48624;BME280;34422;45.802;16.114;2023-10-08T07:33:16;65869.00;;;19.54;100.00
48624;BME280;34422;45.802;16.114;2023-10-08T07:36:05;65879.31;;;19.66;100.00
48624;BME280;34422;45.802;16.114;2023-10-08T07:38:53;65896.69;;;19.77;100.00
48624;BME280;34422;45.802;16.114;2023-10-08T07:41:29;65887.44;;;19.76;100.00
48624;BME280;34422;45.802;16.114;2023-10-08T07:44:07;65936.81;;;20.17;100.00
48624;BME280;34422;45.802;16.114;2023-10-08T07:49:31;65951.47;;;20.36;100.00
48624;BME280;34422;45.802;16.114;2023-10-08T07:54:57;65942.78;;;20.22;100.00
48624;BME280;34422;45.802;16.114;2023-10-08T08:01:06;66079.06;;;21.55;100.00
48624;BME280;34422;45.802;16.114;2023-10-08T08:03:39;66063.31;;;21.40;100.00
48624;BME280;34422;45.802;16.114;2023-10-08T08:06:35;66095.38;;;21.62;100.00
48624;BME280;34422;45.802;16.114;2023-10-08T08:09:21;66164.38;;;22.29;100.00
48624;BME280;34422;45.802;16.114;2023-10-08T08:12:18;66133.97;;;22.01;100.00
48624;BME280;34422;45.802;16.114;2023-10-08T08:15:37;66144.28;;;22.11;100.00
48624;BME280;34422;45.802;16.114;2023-10-08T08:18:48;66135.56;;;22.10;100.00
48624;BME280;34422;45.802;16.114;2023-10-08T08:21:26;66187.72;;;22.56;100.00
48624;BME280;34422;45.802;16.114;2023-10-08T08:24:18;66214.41;;;22.81;100.00
48624;BME280;34422;45.802;16.114;2023-10-08T08:27:05;66236.13;;;23.01;100.00
48624;BME280;34422;45.802;16.114;2023-10-08T08:30:00;66210.03;;;22.77;100.00
48624;BME280;34422;45.802;16.114;2023-10-08T08:32:46;66238.34;;;22.98;100.00
48624;BME280;34422;45.802;16.114;2023-10-08T08:35:35;66300.88;;;23.62;100.00
48624;BME280;34422;45.802;16.114;2023-10-08T08:38:27;66298.69;;;23.60;100.00
48624;BME280;34422;45.802;16.114;2023-10-08T08:41:27;66340.59;;;23.96;99.89
48624;BME280;34422;45.802;16.114;2023-10-08T08:44:05;66280.25;;;23.35;98.38
48624;BME280;34422;45.802;16.114;2023-10-08T08:46:48;66316.06;;;23.79;93.54
48624;BME280;34422;45.802;16.114;2023-10-08T08:49:35;66369.97;;;24.29;89.03
48624;BME280;34422;45.802;16.114;2023-10-08T08:52:32;66475.63;;;25.25;81.95
48624;BME280;34422;45.802;16.114;2023-10-08T08:55:21;66536.66;;;25.81;78.52
48624;BME280;34422;45.802;16.114;2023-10-08T08:57:59;66506.69;;;25.51;76.22
48624;BME280;34422;45.802;16.114;2023-10-08T09:00:28;66550.31;;;25.92;71.02
48624;BME280;34422;45.802;16.114;2023-10-08T09:02:59;66585.69;;;26.27;69.16
48624;BME280;34422;45.802;16.114;2023-10-08T09:05:31;66603.16;;;26.43;67.33
48624;BME280;34422;45.802;16.114;2023-10-08T09:08:03;66554.06;;;26.00;64.75
48624;BME280;34422;45.802;16.114;2023-10-08T09:10:35;66574.78;;;26.17;64.10
48624;BME280;34422;45.802;16.114;2023-10-08T09:13:27;66593.38;;;26.32;63.27
48624;BME280;34422;45.802;16.114;2023-10-08T09:18:47;66625.00;;;26.59;59.04
48624;BME280;34422;45.802;16.114;2023-10-08T09:21:19;66669.19;;;27.02;55.23
48624;BME280;34422;45.802;16.114;2023-10-08T09:24:03;66660.97;;;26.97;52.02
48624;BME280;34422;45.802;16.114;2023-10-08T09:26:55;66658.22;;;26.97;45.45
48624;BME280;34422;45.802;16.114;2023-10-08T09:29:27;66641.31;;;26.79;43.80
48624;BME280;34422;45.802;16.114;2023-10-08T09:31:59;66671.94;;;27.02;44.63
48624;BME280;34422;45.802;16.114;2023-10-08T09:34:32;66650.59;;;26.85;43.22
48624;BME280;34422;45.802;16.114;2023-10-08T09:37:06;66645.16;;;26.80;44.20
48624;BME280;34422;45.802;16.114;2023-10-08T09:39:37;66640.72;;;26.81;42.59
48624;BME280;34422;45.802;16.114;2023-10-08T09:42:08;66647.91;;;26.80;43.91
48624;BME280;34422;45.802;16.114;2023-10-08T09:44:44;66711.19;;;27.39;43.15
48624;BME280;34422;45.802;16.114;2023-10-08T09:47:21;66708.97;;;27.42;41.74
48624;BME280;34422;45.802;16.114;2023-10-08T09:50:01;66708.41;;;27.41;42.27
48624;BME280;34422;45.802;16.114;2023-10-08T09:52:56;66686.59;;;27.21;42.23
48624;BME280;34422;45.802;16.114;2023-10-08T09:55:28;66678.97;;;27.11;42.30
48624;BME280;34422;45.802;16.114;2023-10-08T09:58:01;66654.41;;;26.91;42.77
48624;BME280;34422;45.802;16.114;2023-10-08T10:00:31;66691.50;;;27.25;42.99
48624;BME280;34422;45.802;16.114;2023-10-08T10:03:04;66690.41;;;27.24;43.05
48624;BME280;34422;45.802;16.114;2023-10-08T10:05:37;66675.13;;;27.10;43.20
48624;BME280;34422;45.802;16.114;2023-10-08T10:08:11;66681.16;;;27.16;42.31
48624;BME280;34422;45.802;16.114;2023-10-08T10:10:38;66702.41;;;27.36;43.30
48624;BME280;34422;45.802;16.114;2023-10-08T10:13:08;66685.47;;;27.22;42.69
48624;BME280;34422;45.802;16.114;2023-10-08T10:15:47;66738.97;;;27.70;41.89
48624;BME280;34422;45.802;16.114;2023-10-08T10:18:16;66758.09;;;27.87;40.64
48624;BME280;34422;45.802;16.114;2023-10-08T10:21:24;66763.53;;;27.92;41.43
48624;BME280;34422;45.802;16.114;2023-10-08T10:23:49;66773.34;;;28.02;40.52
48624;BME280;34422;45.802;16.114;2023-10-08T10:26:32;66817.09;;;28.37;40.58
48624;BME280;34422;45.802;16.114;2023-10-08T10:31:48;66814.34;;;28.35;39.86
48624;BME280;34422;45.802;16.114;2023-10-08T10:34:28;66793.06;;;28.15;39.38
48624;BME280;34422;45.802;16.114;2023-10-08T10:36:57;66827.94;;;28.52;39.92
48624;BME280;34422;45.802;16.114;2023-10-08T10:39:29;66812.09;;;28.40;39.57
48624;BME280;34422;45.802;16.114;2023-10-08T10:44:52;66815.44;;;28.38;40.85
48624;BME280;34422;45.802;16.114;2023-10-08T10:47:23;66827.94;;;28.52;40.60
48624;BME280;34422;45.802;16.114;2023-10-08T10:49:55;66801.81;;;28.23;40.56
48624;BME280;34422;45.802;16.114;2023-10-08T10:52:28;66785.38;;;28.13;40.57
48624;BME280;34422;45.802;16.114;2023-10-08T10:55:04;66788.63;;;28.16;40.84
48624;BME280;34422;45.802;16.114;2023-10-08T10:57:55;66792.44;;;28.22;41.40
48624;BME280;34422;45.802;16.114;2023-10-08T11:00:24;66784.25;;;28.14;41.47
48624;BME280;34422;45.802;16.114;2023-10-08T11:03:16;66797.91;;;28.27;42.24
48624;BME280;34422;45.802;16.114;2023-10-08T11:05:48;66805.00;;;28.31;40.92
48624;BME280;34422;45.802;16.114;2023-10-08T11:08:21;66783.66;;;28.16;42.04
48624;BME280;34422;45.802;16.114;2023-10-08T11:10:58;66762.94;;;27.97;42.51
48624;BME280;34422;45.802;16.114;2023-10-08T11:13:32;66753.72;;;27.83;42.35
48624;BME280;34422;45.802;16.114;2023-10-08T11:16:08;66758.09;;;27.87;42.54
48624;BME280;34422;45.802;16.114;2023-10-08T11:18:45;66752.63;;;27.82;42.11
48624;BME280;34422;45.802;16.114;2023-10-08T11:21:24;66787.53;;;28.15;42.46
48624;BME280;34422;45.802;16.114;2023-10-08T11:23:54;66779.84;;;28.13;42.78
48624;BME280;34422;45.802;16.114;2023-10-08T11:26:36;66812.66;;;28.38;43.57
48624;BME280;34422;45.802;16.114;2023-10-08T11:29:08;66815.34;;;28.43;43.66
48624;BME280;34422;45.802;16.114;2023-10-08T11:31:42;66825.75;;;28.50;43.31
48624;BME280;34422;45.802;16.114;2023-10-08T11:34:11;66859.09;;;28.81;42.29
48624;BME280;34422;45.802;16.114;2023-10-08T11:36:40;66879.25;;;29.03;41.06
48624;BME280;34422;45.802;16.114;2023-10-08T11:39:18;66907.69;;;29.26;41.65
48624;BME280;34422;45.802;16.114;2023-10-08T11:41:56;66952.50;;;29.68;42.06
48624;BME280;34422;45.802;16.114;2023-10-08T11:44:23;66919.72;;;29.38;41.10
48624;BME280;34422;45.802;16.114;2023-10-08T11:46:50;66932.75;;;29.55;40.37
48624;BME280;34422;45.802;16.114;2023-10-08T11:49:29;66966.19;;;29.78;40.86
48624;BME280;34422;45.802;16.114;2023-10-08T11:52:05;66933.34;;;29.53;40.94
48624;BME280;34422;45.802;16.114;2023-10-08T11:54:34;66975.44;;;29.89;39.36
48624;BME280;34422;45.802;16.114;2023-10-08T11:57:07;67006.56;;;30.21;40.42
48624;BME280;34422;45.802;16.114;2023-10-08T11:59:36;67051.44;;;30.60;38.64
48624;BME280;34422;45.802;16.114;2023-10-08T12:02:10;67063.44;;;30.73;39.91
48624;BME280;34422;45.802;16.114;2023-10-08T12:04:49;67059.56;;;30.72;36.74
48624;BME280;34422;45.802;16.114;2023-10-08T12:07:25;67026.22;;;30.42;40.52
48624;BME280;34422;45.802;16.114;2023-10-08T12:09:59;67030.03;;;30.45;38.19
48624;BME280;34422;45.802;16.114;2023-10-08T12:12:38;67009.94;;;30.19;36.28
48624;BME280;34422;45.802;16.114;2023-10-08T12:15:24;66973.25;;;29.87;37.29
48624;BME280;34422;45.802;16.114;2023-10-08T12:17:57;66956.88;;;29.72;37.04
48624;BME280;34422;45.802;16.114;2023-10-08T12:20:54;66936.69;;;29.51;36.01
48624;BME280;34422;45.802;16.114;2023-10-08T12:23:41;66954.09;;;29.72;35.97
48624;BME280;34422;45.802;16.114;2023-10-08T12:26:10;66941.56;;;29.58;33.97
48624;BME280;34422;45.802;16.114;2023-10-08T12:28:42;66908.19;;;29.29;33.04
48624;BME280;34422;45.802;16.114;2023-10-08T12:31:12;66909.88;;;29.28;32.40
48624;BME280;34422;45.802;16.114;2023-10-08T12:33:42;66912.66;;;29.26;32.39
48624;BME280;34422;45.802;16.114;2023-10-08T12:36:11;66891.34;;;29.09;32.56
48624;BME280;34422;45.802;16.114;2023-10-08T12:38:42;66921.91;;;29.40;32.67
48624;BME280;34422;45.802;16.114;2023-10-08T12:41:10;66913.69;;;29.32;32.35
48624;BME280;34422;45.802;16.114;2023-10-08T12:43:41;66914.25;;;29.32;31.84
48624;BME280;34422;45.802;16.114;2023-10-08T12:46:09;66921.91;;;29.40;31.40
48624;BME280;34422;45.802;16.114;2023-10-08T12:48:46;66935.56;;;29.52;30.32
48624;BME280;34422;45.802;16.114;2023-10-08T12:51:15;66932.88;;;29.47;30.76
48624;BME280;34422;45.802;16.114;2023-10-08T12:53:42;66916.44;;;29.34;31.89
48624;BME280;34422;45.802;16.114;2023-10-08T12:56:17;66907.09;;;29.28;31.67
48624;BME280;34422;45.802;16.114;2023-10-08T12:58:48;66921.91;;;29.40;31.66
48624;BME280;34422;45.802;16.114;2023-10-08T13:01:16;66923.00;;;29.41;31.67
48624;BME280;34422;45.802;16.114;2023-10-08T13:03:46;66956.34;;;29.69;30.58
48624;BME280;34422;45.802;16.114;2023-10-08T13:06:17;66946.41;;;29.67;31.30
48624;BME280;34422;45.802;16.114;2023-10-08T13:08:59;66960.16;;;29.75;30.19
48624;BME280;34422;45.802;16.114;2023-10-08T13:11:27;66947.03;;;29.63;30.85
48624;BME280;34422;45.802;16.114;2023-10-08T13:14:01;66973.75;;;29.93;30.48
48624;BME280;34422;45.802;16.114;2023-10-08T13:16:28;66963.44;;;29.78;30.76
48624;BME280;34422;45.802;16.114;2023-10-08T13:18:59;66968.38;;;29.80;30.48
48624;BME280;34422;45.802;16.114;2023-10-08T13:21:26;66960.69;;;29.76;30.36
48624;BME280;34422;45.802;16.114;2023-10-08T13:23:55;66944.28;;;29.63;30.80
48624;BME280;34422;45.802;16.114;2023-10-08T13:26:29;66914.75;;;29.35;31.11
48624;BME280;34422;45.802;16.114;2023-10-08T13:28:59;66921.91;;;29.40;31.23
48624;BME280;34422;45.802;16.114;2023-10-08T13:31:27;66910.97;;;29.29;30.91
48624;BME280;34422;45.802;16.114;2023-10-08T13:33:55;66912.06;;;29.30;31.90
48624;BME280;34422;45.802;16.114;2023-10-08T13:36:27;66923.00;;;29.41;32.21
48624;BME280;34422;45.802;16.114;2023-10-08T13:38:54;66913.16;;;29.31;32.74
48624;BME280;34422;45.802;16.114;2023-10-08T13:41:22;66915.34;;;29.33;32.15
48624;BME280;34422;45.802;16.114;2023-10-08T13:43:50;66904.91;;;29.26;31.97
48624;BME280;34422;45.802;16.114;2023-10-08T13:46:25;66922.41;;;29.43;32.58
48624;BME280;34422;45.802;16.114;2023-10-08T13:48:52;66921.84;;;29.45;32.71
48624;BME280;34422;45.802;16.114;2023-10-08T13:51:21;66915.88;;;29.34;31.71
48624;BME280;34422;45.802;16.114;2023-10-08T13:53:54;66923.00;;;29.41;32.29
48624;BME280;34422;45.802;16.114;2023-10-08T13:56:27;66909.28;;;29.30;33.28
48624;BME280;34422;45.802;16.114;2023-10-08T13:58:54;66921.88;;;29.42;33.39
48624;BME280;34422;45.802;16.114;2023-10-08T14:01:41;66891.81;;;29.14;33.28
48624;BME280;34422;45.802;16.114;2023-10-08T14:04:12;66886.84;;;29.12;33.54
48624;BME280;34422;45.802;16.114;2023-10-08T14:06:43;66880.38;;;29.01;33.33
48624;BME280;34422;45.802;16.114;2023-10-08T14:09:24;66870.56;;;28.92;33.92
48624;BME280;34422;45.802;16.114;2023-10-08T14:12:04;66868.38;;;28.90;34.65
48624;BME280;34422;45.802;16.114;2023-10-08T14:14:33;66839.91;;;28.69;34.77
48624;BME280;34422;45.802;16.114;2023-10-08T14:17:02;66860.72;;;28.83;34.59
48624;BME280;34422;45.802;16.114;2023-10-08T14:19:49;66862.91;;;28.85;34.09
48624;BME280;34422;45.802;16.114;2023-10-08T14:22:28;66854.22;;;28.72;35.40
48624;BME280;34422;45.802;16.114;2023-10-08T14:24:58;66825.72;;;28.55;35.21